createdAt,value
2023-01-08T00:00:02.876Z,0
2023-01-08T00:05:02.581Z,0
2023-01-08T00:10:02.374Z,0
2023-01-08T00:15:02.542Z,0
2023-01-08T00:20:03.324Z,0
2023-01-08T00:25:03.189Z,0
2023-01-08T00:30:03.128Z,0
2023-01-08T00:35:02.728Z,0
2023-01-08T00:40:02.473Z,0
2023-01-08T00:45:03.552Z,0
2023-01-08T00:50:02.620Z,0
2023-01-08T00:55:03.428Z,0
2023-01-08T01:00:02.933Z,0
2023-01-08T01:05:02.657Z,0
2023-01-08T01:10:02.623Z,0
2023-01-08T01:15:03.198Z,0
2023-01-08T01:20:02.986Z,0
2023-01-08T01:25:02.784Z,0
2023-01-08T01:30:04.315Z,0
2023-01-08T01:35:03.203Z,0
2023-01-08T01:40:03.270Z,0
2023-01-08T01:45:02.856Z,0
2023-01-08T01:50:02.470Z,0
2023-01-08T01:55:03.968Z,0
2023-01-08T02:00:03.321Z,0
2023-01-08T02:05:03.029Z,0
2023-01-08T02:10:02.741Z,0
2023-01-08T02:15:03.284Z,0
2023-01-08T02:20:03.060Z,0
2023-01-08T02:25:02.856Z,0
2023-01-08T02:30:02.716Z,0
2023-01-08T02:35:02.506Z,0
2023-01-08T02:40:02.376Z,0
2023-01-08T02:45:03.160Z,0
2023-01-08T02:50:03.070Z,0
2023-01-08T02:55:03.273Z,0
2023-01-08T03:00:02.553Z,0
2023-01-08T03:05:02.790Z,0
2023-01-08T03:10:03.250Z,0
2023-01-08T03:15:03.069Z,0
2023-01-08T03:20:02.697Z,0
2023-01-08T03:25:02.453Z,0
2023-01-08T03:30:03.324Z,0
2023-01-08T03:35:03.066Z,0
2023-01-08T03:40:02.746Z,0
2023-01-08T03:45:02.488Z,0
2023-01-08T03:50:03.097Z,0
2023-01-08T03:55:03.601Z,0
2023-01-08T04:00:02.503Z,0
2023-01-08T04:05:03.206Z,0
2023-01-08T04:10:03.178Z,0
2023-01-08T04:15:02.890Z,0
2023-01-08T04:20:02.781Z,0
2023-01-08T04:25:02.694Z,0
2023-01-08T04:30:03.353Z,0
2023-01-08T04:35:03.107Z,0
2023-01-08T04:40:02.680Z,0
2023-01-08T04:45:02.556Z,0
2023-01-08T04:50:02.523Z,0
2023-01-08T04:55:03.724Z,0
2023-01-08T05:00:03.175Z,0
2023-01-08T05:05:02.998Z,0
2023-01-08T05:10:02.931Z,0
2023-01-08T05:15:02.796Z,0
2023-01-08T05:20:02.538Z,0
2023-01-08T05:25:02.564Z,0
2023-01-08T05:30:03.410Z,0
2023-01-08T05:35:03.118Z,0
2023-01-08T05:40:03.240Z,0
2023-01-08T05:45:02.651Z,0
2023-01-08T05:50:02.526Z,0
2023-01-08T05:55:03.727Z,0
2023-01-08T06:00:03.083Z,0
2023-01-08T06:05:02.723Z,0
2023-01-08T06:10:03.047Z,0
2023-01-08T06:15:03.041Z,0
2023-01-08T06:20:02.739Z,0
2023-01-08T06:25:02.779Z,0
2023-01-08T06:30:03.261Z,0
2023-01-08T06:35:03.096Z,0.23
2023-01-08T06:40:02.791Z,0.57
2023-01-08T06:45:02.811Z,1.47
2023-01-08T06:50:02.521Z,2.38
2023-01-08T06:55:03.666Z,5.21
2023-01-08T07:00:03.294Z,9.96
2023-01-08T07:05:03.108Z,6.67
2023-01-08T07:10:02.901Z,20
2023-01-08T07:15:02.676Z,33.33
2023-01-08T07:20:02.656Z,18.33
2023-01-08T07:25:02.362Z,46.67
2023-01-08T07:30:03.178Z,110
2023-01-08T07:35:02.898Z,141.67
2023-01-08T07:40:02.699Z,210
2023-01-08T07:45:02.442Z,348.33
2023-01-08T07:50:03.193Z,391.67
2023-01-08T07:55:03.422Z,393.33
2023-01-08T08:00:03.249Z,453.33
2023-01-08T08:05:02.720Z,533.33
2023-01-08T08:10:02.595Z,390
2023-01-08T08:15:03.345Z,283.33
2023-01-08T08:20:03.359Z,301.67
2023-01-08T08:25:03.082Z,313.33
2023-01-08T08:30:02.959Z,303.33
2023-01-08T08:35:02.808Z,341.67
2023-01-08T08:40:02.550Z,371.67
2023-01-08T08:45:02.477Z,400
2023-01-08T08:50:03.108Z,510
2023-01-08T08:55:03.157Z,630
2023-01-08T09:00:02.764Z,678.33
2023-01-08T09:05:02.853Z,573.33
2023-01-08T09:10:03.323Z,711.67
2023-01-08T09:15:02.445Z,870
2023-01-08T09:20:03.328Z,763.33
2023-01-08T09:25:03.008Z,860
2023-01-08T09:30:02.840Z,973.33
2023-01-08T09:35:02.509Z,991.67
2023-01-08T09:40:03.647Z,886.67
2023-01-08T09:45:03.068Z,651.67
2023-01-08T09:50:02.787Z,886.67
2023-01-08T09:55:03.390Z,1265
2023-01-08T10:00:02.589Z,1065
2023-01-08T10:05:02.735Z,1188.33
2023-01-08T10:10:03.287Z,1695
2023-01-08T10:15:03.071Z,2031.67
2023-01-08T10:20:02.739Z,1493.33
2023-01-08T10:25:02.485Z,1420
2023-01-08T10:30:03.336Z,1346.67
2023-01-08T10:35:03.274Z,1373.33
2023-01-08T10:40:03.316Z,1755
2023-01-08T10:45:06.180Z,1836.67
2023-01-08T10:50:02.515Z,1971.67
2023-01-08T10:55:02.917Z,2061.67
2023-01-08T11:00:03.316Z,2566.67
2023-01-08T11:05:02.890Z,2098.33
2023-01-08T11:10:02.544Z,1930
2023-01-08T11:15:02.727Z,1748.33
2023-01-08T11:20:02.458Z,1820
2023-01-08T11:25:03.104Z,1876.67
2023-01-08T11:30:02.889Z,2448.33
2023-01-08T11:35:02.996Z,2180
2023-01-08T11:40:02.762Z,2136.67
2023-01-08T11:45:02.667Z,2913.33
2023-01-08T11:50:02.374Z,2966.67
2023-01-08T11:55:03.984Z,2993.33
2023-01-08T12:00:03.085Z,2180
2023-01-08T12:05:02.970Z,1815
2023-01-08T12:10:02.766Z,1441.67
2023-01-08T12:15:02.572Z,1791.67
2023-01-08T12:20:02.510Z,1758.33
2023-01-08T12:25:03.227Z,1058.33
2023-01-08T12:30:02.959Z,1163.33
2023-01-08T12:35:02.684Z,1365
2023-01-08T12:40:02.676Z,1525
2023-01-08T12:45:02.486Z,1700
2023-01-08T12:50:03.177Z,1390
2023-01-08T12:55:03.806Z,1325
2023-01-08T13:00:03.236Z,1170
2023-01-08T13:05:02.995Z,1063.33
2023-01-08T13:10:03.004Z,888.33
2023-01-08T13:15:02.811Z,980
2023-01-08T13:20:02.966Z,991.67
2023-01-08T13:25:02.805Z,838.33
2023-01-08T13:30:02.488Z,813.33
2023-01-08T13:35:03.395Z,836.67
2023-01-08T13:40:03.066Z,863.33
2023-01-08T13:45:03.102Z,716.67
2023-01-08T13:50:02.750Z,676.67
2023-01-08T13:55:03.407Z,613.33
2023-01-08T14:00:03.138Z,588.33
2023-01-08T14:05:02.547Z,630
2023-01-08T14:10:03.278Z,605
2023-01-08T14:15:03.108Z,566.67
2023-01-08T14:20:02.982Z,521.67
2023-01-08T14:25:02.744Z,491.67
2023-01-08T14:30:02.594Z,440
2023-01-08T14:35:03.332Z,426.67
2023-01-08T14:40:03.138Z,421.67
2023-01-08T14:45:02.976Z,390
2023-01-08T14:50:02.908Z,406.67
2023-01-08T14:55:03.238Z,498.33
2023-01-08T15:00:02.600Z,536.67
2023-01-08T15:05:03.320Z,511.67
2023-01-08T15:10:03.038Z,370
2023-01-08T15:15:02.815Z,180
2023-01-08T15:20:02.947Z,68.33
2023-01-08T15:25:02.459Z,23.33
2023-01-08T15:30:03.319Z,40
2023-01-08T15:35:03.091Z,20
2023-01-08T15:40:02.813Z,8.33
2023-01-08T15:45:02.867Z,3.17
2023-01-08T15:50:02.820Z,1.47
2023-01-08T15:55:03.275Z,0.79
2023-01-08T16:00:03.402Z,0.23
2023-01-08T16:05:03.196Z,0
2023-01-08T16:10:02.856Z,0
2023-01-08T16:15:02.965Z,0
2023-01-08T16:20:02.904Z,0
2023-01-08T16:25:02.710Z,0
2023-01-08T16:30:02.583Z,0
2023-01-08T16:35:02.645Z,0
2023-01-08T16:40:02.457Z,0
2023-01-08T16:45:03.226Z,0
2023-01-08T16:50:03.064Z,0
2023-01-08T16:55:03.419Z,0
2023-01-08T17:00:02.582Z,0
2023-01-08T17:05:03.165Z,0
2023-01-08T17:10:02.899Z,0
2023-01-08T17:15:02.615Z,0
2023-01-08T17:20:02.914Z,0
2023-01-08T17:25:03.050Z,0
2023-01-08T17:30:02.903Z,0
2023-01-08T17:35:02.685Z,0
2023-01-08T17:40:02.858Z,0
2023-01-08T17:45:02.632Z,0
2023-01-08T17:50:02.491Z,0
2023-01-08T17:55:03.892Z,0
2023-01-08T18:00:03.114Z,0
2023-01-08T18:05:02.845Z,0
2023-01-08T18:10:02.450Z,0
2023-01-08T18:15:03.228Z,0
2023-01-08T18:20:02.872Z,0
2023-01-08T18:25:02.746Z,0
2023-01-08T18:30:02.525Z,0
2023-01-08T18:35:03.209Z,0
2023-01-08T18:40:03.007Z,0
2023-01-08T18:45:02.683Z,0
2023-01-08T18:50:02.342Z,0
2023-01-08T18:55:03.360Z,0
2023-01-08T19:00:03.340Z,0
2023-01-08T19:05:02.967Z,0
2023-01-08T19:10:02.870Z,0
2023-01-08T19:15:02.641Z,0
2023-01-08T19:20:02.973Z,0
2023-01-08T19:25:02.727Z,0
2023-01-08T19:30:02.477Z,0
2023-01-08T19:35:03.277Z,0
2023-01-08T19:40:03.197Z,0
2023-01-08T19:45:03.030Z,0
2023-01-08T19:50:02.765Z,0
2023-01-08T19:55:03.104Z,0
2023-01-08T20:00:02.403Z,0
2023-01-08T20:05:03.292Z,0
2023-01-08T20:10:03.296Z,0
2023-01-08T20:15:02.935Z,0
2023-01-08T20:20:03.090Z,0
2023-01-08T20:25:03.036Z,0
2023-01-08T20:30:03.750Z,0
2023-01-08T20:35:02.469Z,0
2023-01-08T20:40:04.292Z,0
2023-01-08T20:45:03.202Z,0
2023-01-08T20:50:07.066Z,0
2023-01-08T20:55:03.481Z,0
2023-01-08T21:00:02.864Z,0
2023-01-08T21:05:02.510Z,0
2023-01-08T21:10:03.235Z,0
2023-01-08T21:15:03.202Z,0
2023-01-08T21:20:03.099Z,0
2023-01-08T21:25:02.878Z,0
2023-01-08T21:30:02.605Z,0
2023-01-08T21:35:03.325Z,0
2023-01-08T21:40:02.976Z,0
2023-01-08T21:45:03.013Z,0
2023-01-08T21:50:02.809Z,0
2023-01-08T21:55:03.220Z,0
2023-01-08T22:00:03.226Z,0
2023-01-08T22:05:03.057Z,0
2023-01-08T22:10:02.750Z,0
2023-01-08T22:15:02.562Z,0
2023-01-08T22:20:02.413Z,0
2023-01-08T22:25:02.788Z,0
2023-01-08T22:30:03.139Z,0
2023-01-08T22:35:02.981Z,0
2023-01-08T22:40:02.836Z,0
2023-01-08T22:45:02.540Z,0
2023-01-08T22:50:03.318Z,0
2023-01-08T22:55:03.764Z,0
2023-01-08T23:00:03.133Z,0
2023-01-08T23:05:02.605Z,0
2023-01-08T23:10:02.591Z,0
2023-01-08T23:15:03.320Z,0
2023-01-08T23:20:03.041Z,0
2023-01-08T23:25:02.756Z,0
2023-01-08T23:30:02.461Z,0
2023-01-08T23:35:02.406Z,0
2023-01-08T23:40:03.113Z,0
2023-01-08T23:45:02.991Z,0
2023-01-08T23:50:02.748Z,0
2023-01-08T23:55:03.403Z,0
